• Join FlightAware (Why Join?)
  • Login
  • US Flag 
06:54PM EDT


 

Airport Tracker/Info


-or-


 

Live Flight TrackerFlight Track Log ✈ UAL906 ✈ 14-Sep-2013 ✈ EDDF / FRA - KORD

Flight Track Log - Related Links

Times and Time Zones

All times are in EDT time to prevent confusion due to time zone crossing. See the UAL906 flight status page for this flight to view local times or setup timezone preferences in your user account.

Time Position Orientation Groundspeed Altitude Reporting Facility
EDT Latitude Longitude Course Direction KTS MPH feet Rate Location/Type
07:12AM 50.0420 8.5730 213° Southwest 120 138  Level FlightAware
07:12AM 50.0360 8.5500 248° West 175 201 1,320 Level FlightAware
07:13AM 50.0290 8.5200 250° West 195 224 1,000 2,700 Climbing FlightAware
07:13AM 50.0280 8.5030 265° West 195 224 1,600 2,640 Climbing FlightAware
07:13AM 50.0300 8.4710 276° West 192 221 2,600 2,280 Climbing FlightAware
07:13AM 50.0320 8.4440 277° West 190 219 3,300 1,920 Climbing FlightAware
07:14AM 50.0350 8.4250 284° West 199 229 3,700 1,140 Climbing FlightAware
07:14AM 50.0410 8.4110 304° West 217 250 3,800 780 Climbing FlightAware
07:14AM 50.0490 8.4000 319° Northwest 232 267 4,000 1,560 Climbing FlightAware
07:14AM 50.0680 8.3800 326° Northwest 241 277 4,600 1,320 Climbing FlightAware
07:15AM 50.0870 8.3570 322° Northwest 264 304 4,900 1,380 Climbing FlightAware
07:15AM 50.1040 8.3370 323° Northwest 272 313 5,500 1,980 Climbing FlightAware
07:15AM 50.1110 8.3320 335° Northwest 275 316 5,700 2,280 Climbing FlightAware
07:15AM 50.1270 8.3270 349° North 286 329 6,200 2,220 Climbing FlightAware
07:15AM 50.1320 8.3270 360° North 292 336 6,300 1,500 Climbing FlightAware
07:16AM 50.1430 8.3290 North 299 344 6,500 2,220 Climbing FlightAware
07:16AM 50.1540 8.3340 16° North 301 346 6,900 2,520 Climbing FlightAware
07:16AM 50.1810 8.3490 20° North 301 346 7,700 2,100 Climbing FlightAware
07:16AM 50.2060 8.3640 21° North 311 358 8,300 2,100 Climbing FlightAware
07:17AM 50.2340 8.3780 18° North 312 359 9,100 1,800 Climbing FlightAware
07:17AM 50.2650 8.3930 17° North 325 374 9,600 1,500 Climbing FlightAware
07:18AM 50.3160 8.4160 16° North 342 394 10,500 1,560 Climbing FlightAware
07:18AM 50.3750 8.4510 21° North 360 414 11,500 1,320 Climbing FlightAware
07:19AM 50.4220 8.4770 19° North 380 437 12,000 1,080 Climbing FlightAware
07:19AM 50.4910 8.5150 19° North 403 464 12,800 1,320 Climbing FlightAware
07:20AM 50.5480 8.5410 16° North 411 473 13,700 1,680 Climbing FlightAware
07:21AM 50.6150 8.5720 16° North 418 481 14,800 1,980 Climbing FlightAware
07:21AM 50.6850 8.6060 17° North 426 490 16,200 2,340 Climbing FlightAware
07:22AM 50.7460 8.6350 17° North 433 498 17,500 2,160 Climbing FlightAware
07:22AM 50.8100 8.6760 22° Northeast 446 513 18,600 1,800 Climbing FlightAware
07:23AM 50.8380 8.7100 37° Northeast 452 520 19,100 1,920 Climbing FlightAware
07:23AM 50.8810 8.7950 51° Northeast 458 527 20,200 1,920 Climbing FlightAware
07:24AM 50.9290 8.8970 53° Northeast 465 535 21,300 1,620 Climbing FlightAware
07:24AM 50.9750 8.9940 53° Northeast 470 541 22,200 1,440 Climbing FlightAware
07:25AM 51.0190 9.0860 53° Northeast 475 547 23,000 1,320 Climbing FlightAware
07:25AM 51.0620 9.1770 53° Northeast 480 552 23,700 1,140 Climbing FlightAware
07:26AM 51.0960 9.2400 49° Northeast 484 557 24,100 1,320 Climbing FlightAware
07:26AM 51.1220 9.2700 36° Northeast 482 555 24,500 1,380 Climbing FlightAware
07:26AM 51.1520 9.2930 26° Northeast 481 554 24,800 1,080 Climbing FlightAware
07:27AM 51.2420 9.3280 14° North 483 556 25,500 1,080 Climbing FlightAware
07:28AM 51.3210 9.3550 12° North 487 560 26,200 960 Climbing FlightAware
07:28AM 51.3960 9.3800 12° North 490 564 26,700 900 Climbing FlightAware
07:29AM 51.4750 9.4020 10° North 493 567 27,300 960 Climbing FlightAware
07:29AM 51.5580 9.4020 360° North 492 566 27,900 900 Climbing FlightAware
07:30AM 51.6490 9.3860 354° North 495 570 28,500 840 Climbing FlightAware
07:31AM 51.7280 9.3720 354° North 499 574 29,000 840 Climbing FlightAware
07:31AM 51.8080 9.3500 350° North 501 577 29,500 780 Climbing FlightAware
07:32AM 51.8980 9.3120 345° North 502 578 30,000 1,080 Climbing FlightAware
07:32AM 51.9770 9.2760 344° North 497 572 30,900 1,320 Climbing FlightAware
07:33AM 52.0550 9.2410 345° North 494 568 31,600 1,200 Climbing FlightAware
07:34AM 52.1320 9.2070 345° North 490 564 32,300 1,080 Climbing FlightAware
07:34AM 52.2030 9.1760 345° North 488 562 32,900 900 Climbing FlightAware
07:35AM 52.2810 9.1430 345° North 487 560 33,400 840 Climbing FlightAware
07:35AM 52.3610 9.1100 346° North 484 557 33,900 480 Climbing FlightAware
07:36AM 52.4290 9.0730 342° North 481 554 34,000 60 Climbing FlightAware
07:37AM 52.5060 9.0240 339° North 480 552 34,000  Level FlightAware
07:37AM 52.5810 8.9730 338° Northwest 480 552 34,000  Level FlightAware
07:38AM 52.6540 8.9210 337° Northwest 481 554 34,000  Level FlightAware
07:38AM 52.7240 8.8730 337° Northwest 482 555 34,000  Level FlightAware
07:39AM 52.7850 8.8290 336° Northwest 482 555 34,000  Level FlightAware
07:39AM 52.8680 8.7710 337° Northwest 485 558 34,000  Level FlightAware
07:40AM 52.9400 8.7200 337° Northwest 486 559 34,000  Level FlightAware
07:41AM 53.0210 8.6630 337° Northwest 487 560 34,000  Level FlightAware
07:41AM 53.0860 8.6160 337° Northwest 487 560 34,000  Level FlightAware
07:42AM 53.1720 8.5550 337° Northwest 489 563 34,000  Level FlightAware
07:42AM 53.2360 8.5080 336° Northwest 490 564 34,000  Level FlightAware
07:43AM 53.3150 8.4520 337° Northwest 490 564 34,000  Level FlightAware
07:44AM 53.3900 8.3980 337° Northwest 490 564 34,000  Level FlightAware
07:44AM 53.4580 8.3480 336° Northwest 491 565 34,000  Level FlightAware
07:45AM 53.5330 8.2940 337° Northwest 493 567 34,000  Level FlightAware
07:45AM 53.6130 8.2350 336° Northwest 493 567 34,000  Level FlightAware
07:46AM 53.6780 8.1870 336° Northwest 494 568 34,000  Level FlightAware
07:47AM 53.7520 8.1320 336° Northwest 495 570 34,000  Level FlightAware
07:47AM 53.8260 8.0780 337° Northwest 495 570 34,000  Level FlightAware
07:48AM 53.9040 8.0200 336° Northwest 497 572 34,000  Level FlightAware
07:48AM 53.9670 7.9730 336° Northwest 497 572 34,000  Level FlightAware
07:49AM 54.0440 7.9160 337° Northwest 497 572 34,000  Level FlightAware
07:49AM 54.1210 7.8570 336° Northwest 497 572 34,000  Level FlightAware
07:50AM 54.1990 7.7980 336° Northwest 498 573 34,000  Level FlightAware
07:51AM 54.2530 7.7580 337° Northwest 499 574 34,000  Level FlightAware
07:51AM 54.3450 7.6880 336° Northwest 499 574 34,000  Level FlightAware
07:52AM 54.4170 7.6330 336° Northwest 500 575 34,000  Level FlightAware
07:52AM 54.4830 7.5820 336° Northwest 500 575 34,000  Level FlightAware
07:53AM 54.5500 7.5310 336° Northwest 501 577 34,000  Level FlightAware
07:53AM 54.6270 7.4720 336° Northwest 502 578 34,000  Level FlightAware
07:54AM 54.7090 7.4080 336° Northwest 503 579 34,000  Level FlightAware
07:55AM 54.7940 7.3420 336° Northwest 504 580 34,000  Level FlightAware
07:55AM 54.8780 7.2760 336° Northwest 505 581 34,000  Level FlightAware
07:56AM 54.9490 7.2200 336° Northwest 506 582 34,000  Level FlightAware
07:57AM 55.0240 7.1610 336° Northwest 507 583 34,000  Level FlightAware
07:57AM 55.1020 7.0990 336° Northwest 509 586 34,000  Level FlightAware
07:58AM 55.1830 7.0350 336° Northwest 510 587 34,000  Level FlightAware
07:58AM 55.2520 6.9790 335° Northwest 511 588 34,000  Level FlightAware
07:59AM 55.3310 6.9160 336° Northwest 511 588 34,000  Level FlightAware
08:00AM 55.4120 6.8510 336° Northwest 513 590 34,000  Level FlightAware
08:00AM 55.4880 6.7890 335° Northwest 512 589 34,000  Level FlightAware
08:01AM 55.5690 6.7230 335° Northwest 513 590 34,000  Level FlightAware
08:01AM 55.6490 6.6580 335° Northwest 513 590 34,000  Level FlightAware
08:02AM 55.7230 6.5970 335° Northwest 513 590 34,000  Level FlightAware
08:03AM 55.7990 6.5350 335° Northwest 514 592 34,000  Level FlightAware
08:03AM 55.8750 6.4720 335° Northwest 514 592 34,000  Level FlightAware
08:04AM 55.9600 6.4010 335° Northwest 513 590 34,000  Level FlightAware
08:04AM 56.0220 6.3490 335° Northwest 513 590 34,000  Level FlightAware
08:05AM 56.0980 6.2850 335° Northwest 514 592 34,000  Level FlightAware
08:06AM 56.1740 6.2210 335° Northwest 514 592 34,000  Level FlightAware
08:06AM 56.2500 6.1570 335° Northwest 515 593 34,000  Level FlightAware
08:07AM 56.3360 6.0840 335° Northwest 515 593 34,000  Level FlightAware
08:07AM 56.4010 6.0290 335° Northwest 516 594 34,000  Level FlightAware
08:08AM 56.4760 5.9620 334° Northwest 515 593 34,000  Level FlightAware
08:09AM 56.5690 5.8660 330° Northwest 514 592 34,000  Level FlightAware
08:09AM 56.6420 5.7840 328° Northwest 513 590 34,000  Level FlightAware
08:10AM 56.7080 5.7100 328° Northwest 513 590 34,000  Level FlightAware
08:10AM 56.7800 5.6280 328° Northwest 513 590 34,000  Level FlightAware
08:11AM 56.8520 5.5450 328° Northwest 513 590 34,000  Level FlightAware
08:12AM 56.9120 5.4760 328° Northwest 512 589 34,000  Level FlightAware
08:12AM 56.9930 5.3810 327° Northwest 513 590 34,000  Level FlightAware
08:13AM 57.0520 5.3120 328° Northwest 513 590 34,000  Level FlightAware
08:13AM 57.1230 5.2290 328° Northwest 514 592 34,000  Level FlightAware
08:14AM 57.1960 5.1420 327° Northwest 514 592 34,000  Level FlightAware
08:14AM 57.2700 5.0550 328° Northwest 515 593 34,000  Level FlightAware
08:15AM 57.3310 4.9830 328° Northwest 515 593 34,000  Level FlightAware
08:16AM 57.4090 4.8900 327° Northwest 515 593 34,000  Level FlightAware
08:16AM 57.4790 4.8070 327° Northwest 516 594 34,000  Level FlightAware
08:17AM 57.5510 4.7190 327° Northwest 517 595 34,000  Level FlightAware
08:17AM 57.6150 4.6420 327° Northwest 515 593 34,000  Level FlightAware
08:18AM 57.6860 4.5560 327° Northwest 512 589 34,000  Level FlightAware
08:19AM 57.7590 4.4670 327° Northwest 507 583 34,000  Level FlightAware
08:19AM 57.8270 4.3830 327° Northwest 506 582 34,000  Level FlightAware
08:20AM 57.8900 4.3060 327° Northwest 506 582 34,000  Level FlightAware
08:20AM 57.9670 4.2100 327° Northwest 505 581 34,000  Level FlightAware
08:21AM 58.0270 4.1360 327° Northwest 504 580 34,000  Level FlightAware
08:21AM 58.0970 4.0480 326° Northwest 503 579 34,000  Level FlightAware
08:22AM 58.1690 3.9570 326° Northwest 503 579 34,000  Level FlightAware
08:23AM 58.2310 3.8780 326° Northwest 502 578 34,000  Level FlightAware
08:23AM 58.3020 3.7890 327° Northwest 500 575 34,000 -120 Level FlightAware
08:24AM 58.3620 3.7141 327° Northwest 484 557 33,900  Descending FlightAware UK
08:24AM 58.3710 3.7010 327° Northwest 498 573 34,000  Climbing FlightAware
08:24AM 58.4308 3.6261 327° Northwest 480 552 33,900  Descending FlightAware UK
08:24AM 58.4280 3.6280 327° Northwest 498 573 34,000 120 Climbing FlightAware
08:25AM 58.4990 3.5370 326° Northwest 499 574 34,000 -120 Level FlightAware
08:26AM 58.5678 3.4491 326° Northwest 480 552 33,900  Descending FlightAware UK
08:26AM 58.5690 3.4470 326° Northwest 498 573 34,000 120 Climbing FlightAware
08:26AM 58.6360 3.3590 326° Northwest 500 575 34,000  Level FlightAware
08:27AM 58.6980 3.2780 326° Northwest 499 574 34,000  Level FlightAware
08:27AM 58.7620 3.1950 326° Northwest 498 573 34,000  Level FlightAware
08:28AM 58.8350 3.0990 326° Northwest 497 572 34,000  Level FlightAware
08:28AM 58.9000 3.0130 326° Northwest 497 572 34,000  Level FlightAware
08:29AM 58.9630 2.9290 326° Northwest 496 571 34,000  Level FlightAware
08:30AM 59.0300 2.8400 326° Northwest 495 570 34,000  Level FlightAware
08:30AM 59.0940 2.7540 325° Northwest 494 568 34,000 -120 Level FlightAware
08:31AM 59.1793 2.6405 325° Northwest 484 557 33,900  Descending FlightAware UK
08:31AM 59.1800 2.6380 325° Northwest 492 566 34,000 120 Climbing FlightAware
08:32AM 59.2450 2.5490 325° Northwest 492 566 34,000  Level FlightAware
08:32AM 59.3210 2.4460 325° Northwest 490 564 34,000  Level FlightAware
08:33AM 59.3910 2.3510 325° Northwest 491 565 34,000  Level FlightAware
08:33AM 59.4540 2.2640 325° Northwest 491 565 34,000  Level FlightAware
08:34AM 59.5300 2.1590 325° Northwest 490 564 34,000  Level FlightAware
08:35AM 59.5810 2.0880 325° Northwest 490 564 34,000  Level FlightAware
08:35AM 59.6454 2.0005 325° Northwest 480 552 34,000  Level FlightAware UK
08:35AM 59.6500 1.9910 325° Northwest 489 563 34,000  Level FlightAware
08:36AM 59.7210 1.8920 325° Northwest 489 563 34,000 -180 Level FlightAware
08:36AM 59.7337 1.8765 325° Northwest 478 550 33,900  Descending FlightAware UK
08:37AM 59.7950 1.7880 325° Northwest 490 564 34,000 60 Climbing FlightAware
08:37AM 59.8620 1.6920 324° Northwest 490 564 34,000  Level FlightAware
08:38AM 59.9270 1.6000 325° Northwest 491 565 34,000  Level FlightAware
08:38AM 60.0000 1.4950 324° Northwest 492 566 34,000  Level FlightAware
08:39AM 60.0610 1.4070 324° Northwest 493 567 34,000  Level FlightAware
08:40AM 60.1412 1.2919 324° Northwest 480 552 34,000  Level FlightAware UK
08:40AM 60.1340 1.3020 324° Northwest 493 567 34,000  Level FlightAware
08:40AM 60.2000 1.2050 324° Northwest 494 568 34,000  Level FlightAware
08:41AM 60.2700 1.1030 324° Northwest 493 567 34,000  Level FlightAware
08:41AM 60.3340 1.0080 324° Northwest 493 567 34,000  Level FlightAware
08:42AM 60.3980 0.9130 324° Northwest 495 570 34,000  Level FlightAware
08:43AM 60.4610 0.8200 324° Northwest 495 570 34,000  Level FlightAware
08:43AM 60.5180 0.7360 324° Northwest 495 570 34,000  Level FlightAware
08:44AM 60.5880 0.6300 323° Northwest 489 563 34,000  Level FlightAware
08:44AM 60.6530 0.5330 324° Northwest 496 571 34,000  Level FlightAware
08:45AM 60.7220 0.4280 323° Northwest 497 572 34,000  Level FlightAware
08:46AM 60.7800 0.3390 323° Northwest 497 572 34,000  Level FlightAware
08:46AM 60.8630 0.2120 323° Northwest 487 560 34,000  Level FlightAware
08:47AM 60.9140 0.1340 323° Northwest 487 560 34,000  Level FlightAware
08:47AM 60.9750 0.0360 322° Northwest 487 560 34,000  Level FlightAware
08:48AM 61.0290 -0.0520 322° Northwest 487 560 34,000  Level FlightAware
08:49AM 61.1100 -0.2210 315° West 490 564 34,000  Level FlightAware
08:49AM 61.1620 -0.3280 315° West 489 563 34,000  Level FlightAware
08:50AM 61.2190 -0.4450 315° West 487 560 34,000  Level FlightAware
08:50AM 61.2730 -0.5560 315° West 487 560 34,000  Level FlightAware
08:51AM 61.3300 -0.6740 315° West 479 551 34,000  Level FlightAware
08:51AM 61.3880 -0.7920 316° Northwest 482 555 34,000  Level FlightAware
08:52AM 61.4400 -0.9020 315° West 478 550 34,000  Level FlightAware
08:53AM 61.4960 -1.0200 315° West 475 547 34,000  Level FlightAware
08:53AM 61.5520 -1.1370 315° West 475 547 34,000  Level FlightAware
08:54AM 61.6050 -1.2500 315° West 475 547 34,000  Level FlightAware
08:54AM 61.6540 -1.3560 314° West 475 547 34,000  Level FlightAware
08:55AM 61.7110 -1.4780 315° West 475 547 34,000  Level FlightAware
08:56AM 61.7640 -1.5920 315° West 473 544 34,000  Level FlightAware
08:56AM 61.8190 -1.7110 314° West 472 543 34,000  Level FlightAware
08:57AM 61.8780 -1.8380 315° West 425 489 34,000  Level FlightAware
08:57AM 61.9360 -1.9660 314° West 467 537 34,000  Level FlightAware
08:58AM 61.9850 -2.0730 314° West 466 536 34,000  Level FlightAware
08:59AM 62.0370 -2.1890 314° West 465 535 34,000  Level FlightAware
08:59AM 62.0910 -2.3100 314° West 465 535 34,000  Level FlightAware
09:00AM 62.1420 -2.4230 314° West 464 534 34,000  Level FlightAware
09:00AM 62.1920 -2.5360 314° West 463 533 34,000  Level FlightAware
09:01AM 62.2410 -2.6460 314° West 461 531 34,000  Level FlightAware
09:01AM 62.2970 -2.7740 313° West 461 531 34,000  Level FlightAware
09:02AM 62.3490 -2.8930 313° West 460 529 34,000  Level FlightAware
09:03AM 62.3960 -3.0010 313° West 459 528 34,000  Level FlightAware
09:03AM 62.4470 -3.1180 313° West 459 528 34,000  Level FlightAware
09:04AM 62.4930 -3.2240 313° West 458 527 34,000  Level FlightAware
09:04AM 62.5480 -3.3540 313° West 457 526 34,000  Level FlightAware
09:05AM 62.5990 -3.4730 313° West 456 525 34,000  Level FlightAware
09:06AM 62.6480 -3.5890 313° West 456 525 34,000  Level FlightAware
09:06AM 62.6980 -3.7090 312° West 455 524 34,000  Level FlightAware
09:07AM 62.7490 -3.8310 312° West 453 521 34,000  Level FlightAware
09:07AM 62.7940 -3.9380 313° West 452 520 34,000  Level FlightAware
09:08AM 62.8450 -4.0620 312° West 450 518 34,000  Level FlightAware
09:09AM 62.8980 -4.1890 313° West 449 517 34,000  Level FlightAware
09:09AM 62.9420 -4.2980 312° West 448 516 34,000  Level FlightAware
09:10AM 62.9920 -4.4190 312° West 448 516 34,000  Level FlightAware
09:10AM 63.0420 -4.5410 312° West 449 517 34,000  Level FlightAware
09:11AM 63.0690 -4.6080 312° West 449 517 34,000  Level FlightAware
09:11AM 63.1360 -4.7750 312° West 450 518 34,000  Level FlightAware
09:12AM 63.1850 -4.9000 311° West 449 517 34,000  Level FlightAware
09:13AM 63.2370 -5.0300 312° West 449 517 34,000  Level FlightAware
09:13AM 63.2860 -5.1550 311° West 448 516 34,000  Level FlightAware
09:14AM 63.3290 -5.2640 311° West 448 516 34,000  Level FlightAware
09:14AM 63.3780 -5.3900 311° West 449 517 34,000  Level FlightAware
09:15AM 63.4220 -5.5010 312° West 450 518 34,000  Level FlightAware
09:16AM 63.4730 -5.6350 310° West 453 521 34,000  Level FlightAware
09:16AM 63.5250 -5.7690 311° West 452 520 34,000 240 Level FlightAware
09:17AM 63.5670 -5.8800 310° West 456 525 34,300 600 Climbing FlightAware
09:17AM 63.6180 -6.0120 311° West 459 528 34,700 540 Climbing FlightAware
09:18AM 63.6670 -6.1440 310° West 459 528 35,000 240 Climbing FlightAware
09:18AM 63.7130 -6.2660 310° West 458 527 35,000  Level FlightAware
09:19AM 63.7590 -6.3900 310° West 456 525 35,000  Level FlightAware
09:20AM 63.8080 -6.5200 311° West 456 525 35,000  Level FlightAware
09:20AM 63.8560 -6.6520 310° West 455 524 35,000  Level FlightAware
09:21AM 63.9040 -6.7820 310° West 454 522 35,000  Level FlightAware
09:21AM 63.9480 -6.9020 310° West 454 522 35,000  Level FlightAware
09:22AM 63.9940 -7.0280 310° West 453 521 35,000  Level FlightAware
09:22AM 64.0370 -7.1500 309° West 451 519 35,000  Level FlightAware
09:23AM 64.0770 -7.2600 310° West 451 519 35,000  Level FlightAware
09:24AM 64.1220 -7.3870 309° West 451 519 35,000  Level FlightAware
09:24AM 64.1630 -7.5040 309° West 451 519 35,000  Level FlightAware
09:25AM 64.2030 -7.6180 309° West 451 519 35,000  Level FlightAware
09:25AM 64.2430 -7.7320 309° West 451 519 35,000  Level FlightAware
09:26AM 64.2830 -7.8460 309° West 451 519 35,000  Level FlightAware
09:27AM 64.3260 -7.9670 309° West 451 519 35,000  Level FlightAware
09:27AM 64.3660 -8.0820 309° West 451 519 35,000  Level FlightAware
09:28AM 64.4070 -8.2000 309° West 451 519 35,000  Level FlightAware
09:28AM 64.4450 -8.3080 309° West 451 519 35,000  Level FlightAware
09:29AM 64.4850 -8.4230 309° West 451 519 35,000  Level FlightAware
09:30AM 64.5260 -8.5390 309° West 451 519 35,000  Level FlightAware
09:30AM 64.5670 -8.6570 309° West 451 519 35,000  Level FlightAware
09:31AM 64.6070 -8.7730 309° West 451 519 35,000  Level FlightAware
09:32AM 64.6490 -8.8950 309° West 451 519 35,000  Level FlightAware
09:32AM 64.6900 -9.0110 310° West 451 519 35,000  Level FlightAware
09:33AM 64.7300 -9.1270 309° West 451 519 35,000  Level FlightAware
09:35AM 64.7726 -9.6062 282° West  Level Estimated
09:36AM 64.7960 -9.8781 282° West  Level Estimated
09:37AM 64.8189 -10.1505 281° West  Level Estimated
09:38AM 64.8413 -10.4234 281° West  Level Estimated
09:39AM 64.8632 -10.6967 281° West  Level Estimated
09:40AM 64.8846 -10.9704 281° West  Level Estimated
09:41AM 64.9055 -11.2446 280° West  Level Estimated
09:42AM 64.9259 -11.5192 280° West  Level Estimated
09:43AM 64.9458 -11.7942 280° West  Level Estimated
09:44AM 64.9652 -12.0696 280° West  Level Estimated
09:45AM 64.9841 -12.3454 279° West  Level Estimated
09:46AM 65.0025 -12.6216 279° West  Level Estimated
09:47AM 65.0203 -12.8981 279° West  Level Estimated
09:48AM 65.0377 -13.1751 279° West  Level Estimated
09:49AM 65.0545 -13.4523 278° West  Level Estimated
09:49AM 65.8700 -13.7780 278° West 458 527 35,000  Level FlightAware
09:50AM 65.9020 -13.9270 298° West 457 526 35,000  Level FlightAware
09:50AM 65.9280 -14.0560 296° West 455 524 35,000  Level FlightAware
09:51AM 65.9600 -14.2140 296° West 455 524 35,000  Level FlightAware
09:52AM 65.9890 -14.3600 296° West 455 524 35,000  Level FlightAware
09:52AM 66.0170 -14.5020 296° West 455 524 35,000  Level FlightAware
09:53AM 66.0460 -14.6490 296° West 455 524 35,000  Level FlightAware
09:53AM 66.0740 -14.7910 296° West 455 524 35,000  Level FlightAware
09:54AM 66.1430 -15.1120 298° West 461 531 35,000  Level FlightAware
09:55AM 66.1710 -15.2540 296° West 461 531 35,000  Level FlightAware
09:55AM 66.2060 -15.4360 296° West 459 528 35,000  Level FlightAware
09:56AM 66.2380 -15.6030 295° West 458 527 35,000  Level FlightAware
09:56AM 66.2670 -15.7570 295° West 458 527 35,000  Level FlightAware
09:57AM 66.3000 -15.9250 296° West 456 525 35,000  Level FlightAware
09:58AM 66.3320 -16.0970 295° West 457 526 35,000  Level FlightAware
09:58AM 66.3600 -16.2460 295° West 457 526 35,000  Level FlightAware
09:59AM 66.3900 -16.4100 295° West 457 526 35,000  Level FlightAware
09:59AM 66.4260 -16.6010 295° West 463 533 35,000  Level FlightAware
10:00AM 66.4550 -16.7570 295° West 464 534 35,000  Level FlightAware
10:01AM 66.4890 -16.9470 294° West 464 534 35,000  Level FlightAware
10:01AM 66.5160 -17.1010 294° West 464 534 35,000  Level FlightAware
10:02AM 66.5430 -17.2520 294° West 464 534 35,000  Level FlightAware
10:02AM 66.5700 -17.4030 294° West 464 534 35,000  Level FlightAware
10:03AM 66.5960 -17.5540 293° West 464 534 35,000  Level FlightAware
10:04AM 66.6240 -17.7090 295° West 464 534 35,000  Level FlightAware
10:04AM 66.6510 -17.8610 294° West 464 534 35,000  Level FlightAware
10:05AM 66.6770 -18.0120 294° West 464 534 35,000  Level FlightAware
10:05AM 66.7050 -18.1680 294° West 464 534 35,000  Level FlightAware
10:06AM 66.7300 -18.3120 294° West 464 534 35,000  Level FlightAware
10:07AM 66.7570 -18.4680 294° West 464 534 35,000  Level FlightAware
10:07AM 66.7850 -18.6240 295° West 464 534 35,000  Level FlightAware
10:08AM 66.8120 -18.7810 294° West 464 534 35,000  Level FlightAware
10:08AM 66.8390 -18.9330 294° West 464 534 35,000  Level FlightAware
10:09AM 66.8660 -19.0860 294° West 464 534 35,000  Level FlightAware
10:10AM 66.8920 -19.2390 293° West 464 534 35,000  Level FlightAware
10:12AM 66.8954 -19.8111 271° West  Level Estimated
10:13AM 66.8964 -20.1123 271° West  Level Estimated
10:14AM 66.8968 -20.4135 270° West  Level Estimated
10:15AM 66.8967 -20.7147 270° West  Level Estimated
10:16AM 66.8959 -21.0159 270° West  Level Estimated
10:17AM 66.8946 -21.3171 270° West  Level Estimated
10:18AM 66.8928 -21.6182 269° West  Level Estimated
10:19AM 66.8903 -21.9193 269° West  Level Estimated
10:20AM 66.8873 -22.2203 269° West  Level Estimated
10:21AM 66.8837 -22.5212 268° West  Level Estimated
10:22AM 66.8796 -22.8220 268° West  Level Estimated
10:23AM 66.8748 -23.1227 268° West  Level Estimated
10:24AM 66.8695 -23.4233 268° West  Level Estimated
10:25AM 66.8637 -23.7238 267° West  Level Estimated
10:26AM 66.8572 -24.0241 267° West  Level Estimated
10:27AM 66.8502 -24.3242 267° West  Level Estimated
10:28AM 66.8427 -24.6242 266° West  Level Estimated
10:29AM 66.8345 -24.9240 266° West  Level Estimated
10:30AM 66.8258 -25.2235 266° West  Level Estimated
10:31AM 66.8165 -25.5229 266° West  Level Estimated
10:32AM 66.8067 -25.8220 265° West  Level Estimated
10:33AM 66.7963 -26.1209 265° West  Level Estimated
10:34AM 66.7853 -26.4195 265° West  Level Estimated
10:35AM 66.7738 -26.7178 265° West  Level Estimated
10:36AM 66.7617 -27.0159 264° West  Level Estimated
10:37AM 66.7490 -27.3136 264° West  Level Estimated
10:38AM 66.7358 -27.6110 264° West  Level Estimated
10:39AM 66.7221 -27.9081 263° West  Level Estimated
10:40AM 66.7077 -28.2049 263° West  Level Estimated
10:41AM 66.6928 -28.5013 263° West  Level Estimated
10:42AM 66.6774 -28.7974 263° West  Level Estimated
10:43AM 66.6614 -29.0931 262° West  Level Estimated
10:44AM 66.6448 -29.3884 262° West  Level Estimated
10:45AM 66.6277 -29.6833 262° West  Level Estimated
10:46AM 66.6101 -29.9777 262° West  Level Estimated
10:47AM 66.5919 -30.2718 261° West  Level Estimated
10:48AM 66.5731 -30.5654 261° West  Level Estimated
10:49AM 66.5538 -30.8585 261° West  Level Estimated
10:50AM 66.5339 -31.1512 260° West  Level Estimated
10:51AM 66.5135 -31.4435 260° West  Level Estimated
10:52AM 66.4926 -31.7352 260° West  Level Estimated
10:53AM 66.4711 -32.0264 260° West  Level Estimated
10:54AM 66.4491 -32.3172 259° West  Level Estimated
10:55AM 66.4265 -32.6074 259° West  Level Estimated
10:56AM 66.4034 -32.8971 259° West  Level Estimated
10:57AM 66.3797 -33.1862 259° West  Level Estimated
10:58AM 66.3556 -33.4748 258° West  Level Estimated
10:59AM 66.3308 -33.7629 258° West  Level Estimated
11:00AM 66.3056 -34.0503 258° West  Level Estimated
11:01AM 66.2798 -34.3372 258° West  Level Estimated
11:02AM 66.2535 -34.6235 257° West  Level Estimated
11:03AM 66.2267 -34.9092 257° West  Level Estimated
11:04AM 66.1994 -35.1942 257° West  Level Estimated
11:05AM 66.1715 -35.4787 256° West  Level Estimated
11:06AM 66.1431 -35.7625 256° West  Level Estimated
11:07AM 66.1142 -36.0457 256° West  Level Estimated
11:08AM 66.0848 -36.3282 256° West  Level Estimated
11:09AM 66.0548 -36.6101 255° West  Level Estimated
11:10AM 66.0244 -36.8913 255° West  Level Estimated
11:11AM 65.9934 -37.1718 255° West  Level Estimated
11:12AM 65.9619 -37.4522 255° West  Level Estimated
11:13AM 65.9298 -37.7318 254° West  Level Estimated
11:14AM 65.8972 -38.0108 254° West  Level Estimated
11:15AM 65.8642 -38.2890 254° West  Level Estimated
11:16AM 65.8306 -38.5665 254° West  Level Estimated
11:17AM 65.7966 -38.8433 253° West  Level Estimated
11:18AM 65.7620 -39.1194 253° West  Level Estimated
11:19AM 65.7270 -39.3947 253° West  Level Estimated
11:20AM 65.6914 -39.6692 253° West  Level Estimated
11:21AM 65.6554 -39.9430 252° West  Level Estimated
11:22AM 65.6188 -40.2161 252° West  Level Estimated
11:23AM 65.5818 -40.4883 252° West  Level Estimated
11:24AM 65.5443 -40.7598 252° West  Level Estimated
11:25AM 65.5063 -41.0305 251° West  Level Estimated
11:26AM 65.4678 -41.3004 251° West  Level Estimated
11:27AM 65.4289 -41.5695 251° West  Level Estimated
11:28AM 65.3895 -41.8378 251° West  Level Estimated
11:29AM 65.3496 -42.1053 250° West  Level Estimated
11:30AM 65.3092 -42.3720 250° West  Level Estimated
11:31AM 65.2676 -42.6425 250° West  Level Estimated
11:32AM 65.2256 -42.9122 250° West  Level Estimated
11:33AM 65.1831 -43.1810 249° West  Level Estimated
11:34AM 65.1400 -43.4489 249° West  Level Estimated
11:35AM 65.0965 -43.7160 249° West  Level Estimated
11:36AM 65.0526 -43.9822 249° West  Level Estimated
11:37AM 65.0082 -44.2475 248° West  Level Estimated
11:38AM 64.9633 -44.5119 248° West  Level Estimated
11:39AM 64.9179 -44.7755 248° West  Level Estimated
11:40AM 64.8721 -45.0381 248° West  Level Estimated
11:41AM 64.8258 -45.2998 248° West  Level Estimated
11:42AM 64.7790 -45.5607 247° West  Level Estimated
11:43AM 64.7318 -45.8206 247° West  Level Estimated
11:44AM 64.6842 -46.0796 247° West  Level Estimated
11:45AM 64.6360 -46.3377 247° West  Level Estimated
11:46AM 64.5875 -46.5949 246° West  Level Estimated
11:47AM 64.5385 -46.8512 246° West  Level Estimated
11:48AM 64.4890 -47.1065 246° West  Level Estimated
11:49AM 64.4391 -47.3610 246° West  Level Estimated
11:50AM 64.3888 -47.6144 245° Southwest  Level Estimated
11:51AM 64.3381 -47.8670 245° Southwest  Level Estimated
11:52AM 64.2868 -48.1186 245° Southwest  Level Estimated
11:53AM 64.2352 -48.3693 245° Southwest  Level Estimated
11:53AM 65.1000 -52.6500 244° Southwest 470 541 35,000  Level Gander Center
11:54AM 64.1832 -48.6191 245° Southwest  Level Estimated
11:54AM 65.0167 -52.9167 234° Southwest 480 552 35,000  Level Gander Center
11:55AM 64.1307 -48.8679 244° Southwest  Level Estimated
11:55AM 64.9333 -53.1333 228° Southwest 480 552 35,000  Level Gander Center
11:56AM 64.0778 -49.1158 244° Southwest  Level Estimated
11:56AM 64.8500 -53.3500 228° Southwest 470 541 35,000  Level Gander Center
11:57AM 64.0245 -49.3627 244° Southwest  Level Estimated
11:57AM 64.7667 -53.6000 232° Southwest 470 541 35,000  Level Gander Center
11:58AM 63.9707 -49.6087 244° Southwest  Level Estimated
11:58AM 64.6833 -53.8167 228° Southwest 470 541 35,000  Level Gander Center
11:59AM 64.6000 -54.0333 228° Southwest 460 529 35,000  Level Gander Center
12:00PM 64.5167 -54.2500 228° Southwest 470 541 35,000  Level Gander Center
12:01PM 64.4333 -54.5000 232° Southwest 470 541 35,000  Level Gander Center
12:02PM 64.3333 -54.7167 223° Southwest 460 529 35,000  Level Gander Center
12:03PM 64.2667 -54.9167 233° Southwest 460 529 35,000  Level Gander Center
12:04PM 64.1667 -55.1333 223° Southwest 460 529 35,000  Level Gander Center
12:05PM 64.0833 -55.3833 233° Southwest 450 518 35,000  Level Gander Center
12:06PM 64.0000 -55.5500 221° Southwest 440 506 35,000  Level Gander Center
12:07PM 63.9333 -55.7500 233° Southwest 440 506 35,000  Level Gander Center
12:08PM 63.8333 -55.9500 221° Southwest 440 506 35,000  Level Gander Center
12:09PM 63.7667 -56.1500 233° Southwest 440 506 35,000  Level Gander Center
12:10PM 63.6667 -56.3500 222° Southwest 450 518 35,000 240 Level Gander Center
12:11PM 63.5833 -56.5500 227° Southwest 450 518 35,500 900 Climbing Gander Center
12:12PM 63.5000 -56.7500 227° Southwest 450 518 36,800 780 Climbing Gander Center
12:13PM 63.4167 -56.9500 227° Southwest 440 506 37,100 300 Climbing Gander Center
12:14PM 63.3333 -57.1500 227° Southwest 450 518 37,400 360 Climbing Gander Center
12:15PM 63.2333 -57.3500 222° Southwest 450 518 37,900 300 Climbing Gander Center
12:16PM 63.1500 -57.5500 227° Southwest 460 529 38,000  Climbing Gander Center
12:17PM 63.0667 -57.7333 225° Southwest 460 529 38,000  Level Gander Center
12:18PM 62.9667 -57.9333 222° Southwest 460 529 38,000  Level Gander Center
12:19PM 62.8833 -58.1167 225° Southwest 460 529 38,000  Level Gander Center
12:20PM 62.8000 -58.3167 228° Southwest 460 529 38,000  Level Gander Center
12:21PM 62.7000 -58.5000 220° Southwest 450 518 38,000  Level Gander Center
12:22PM 62.6167 -58.6833 225° Southwest 450 518 38,000  Level Gander Center
12:23PM 62.5167 -58.8833 223° Southwest 440 506 38,000  Level Gander Center
12:24PM 62.4333 -59.0667 226° Southwest 440 506 38,000  Level Gander Center
12:25PM 62.3500 -59.2500 226° Southwest 440 506 38,000  Level Gander Center
12:26PM 62.2667 -59.4333 226° Southwest 440 506 38,000  Level Gander Center
12:27PM 62.1667 -59.6167 221° Southwest 440 506 38,000  Level Gander Center
12:28PM 62.0833 -59.8000 226° Southwest 440 506 38,000  Level Gander Center
12:29PM 61.9833 -59.9333 212° Southwest 430 495 38,000  Level Gander Center
12:30PM 61.9000 -60.1167 226° Southwest 430 495 38,000  Level Gander Center
12:31PM 61.8000 -60.3000 221° Southwest 430 495 38,000  Level Gander Center
12:32PM 61.7333 -60.4833 233° Southwest 430 495 38,000  Level Gander Center
12:33PM 61.6500 -60.6167 217° Southwest 430 495 38,000  Level Gander Center
12:34PM 61.5500 -60.8000 221° Southwest 430 495 38,000  Level Gander Center
12:35PM 61.4667 -60.9667 224° Southwest 430 495 38,000  Level Gander Center
12:36PM 61.3667 -61.1500 221° Southwest 430 495 38,000  Level Gander Center
12:37PM 61.2833 -61.2833 218° Southwest 440 506 38,000  Level Gander Center
12:38PM 61.1833 -61.4833 224° Southwest 430 495 38,000  Level Gander Center
12:39PM 61.1000 -61.6333 221° Southwest 430 495 38,000  Level Gander Center
12:40PM 61.0167 -61.8000 224° Southwest 430 495 38,000  Level Gander Center
12:41PM 60.9333 -61.9333 218° Southwest 430 495 38,000  Level Gander Center
12:42PM 60.8333 -62.1000 219° Southwest 430 495 38,000  Level Gander Center
12:43PM 60.7500 -62.3000 230° Southwest 430 495 38,000  Level Gander Center
12:44PM 60.6667 -62.4333 218° Southwest 430 495 38,000  Level Gander Center
12:45PM 60.5667 -62.6000 219° Southwest 430 495 38,000  Level Gander Center
12:46PM 60.4833 -62.7667 225° Southwest 430 495 38,000  Level Gander Center
12:47PM 60.3667 -62.9000 209° Southwest 430 495 38,000  Level Gander Center
12:48PM 60.2833 -63.0667 225° Southwest 430 495 38,000  Level Gander Center
12:49PM 60.2000 -63.2167 222° Southwest 430 495 38,000  Level Gander Center
12:50PM 60.1000 -63.3833 220° Southwest 430 495 38,000  Level Gander Center
12:51PM 60.0167 -63.5167 219° Southwest 430 495 38,000  Level Gander Center
12:52PM 59.9333 -63.6667 222° Southwest 430 495 38,000  Level Gander Center
12:53PM 59.8333 -63.8333 220° Southwest 430 495 38,000  Level Gander Center
12:54PM 59.7333 -63.9833 217° Southwest 420 483 38,000  Level Gander Center
12:55PM 59.6667 -64.1833 237° Southwest 420 483 38,000  Level Gander Center
12:56PM 59.6000 -64.3667 234° Southwest 420 483 38,000  Level Gander Center
12:57PM 59.5333 -64.5333 232° Southwest 420 483 38,000  Level Gander Center
12:58PM 59.4667 -64.7167 234° Southwest 420 483 38,000  Level Gander Center
12:59PM 59.3667 -64.8833 220° Southwest 420 483 38,000  Level Gander Center
01:00PM 59.3000 -65.0667 235° Southwest 420 483 38,000  Level Gander Center
01:01PM 59.2333 -65.2167 229° Southwest 420 483 38,000  Level Gander Center
01:02PM 59.1500 -65.4000 228° Southwest 420 483 38,000  Level Gander Center
01:03PM 59.0833 -65.6000 237° Southwest 420 483 38,000  Level Gander Center
01:04PM 59.0167 -65.7500 229° Southwest 420 483 38,000  Level Gander Center
01:05PM 58.9167 -65.9333 223° Southwest 420 483 38,000  Level Gander Center
01:06PM 58.8500 -66.0833 229° Southwest 420 483 38,000  Level Gander Center
01:07PM 58.7833 -66.2667 235° Southwest 430 495 38,000  Level Gander Center
01:08PM 58.6833 -66.4500 224° Southwest 430 495 38,000  Level Gander Center
01:09PM 58.6167 -66.6333 235° Southwest 430 495 38,000  Level Gander Center
01:10PM 58.5333 -66.7833 223° Southwest 430 495 38,000  Level Gander Center
01:11PM 58.4667 -66.9500 233° Southwest 430 495 38,000  Level Gander Center
01:12PM 58.3667 -67.1333 224° Southwest 430 495 38,000  Level Gander Center
01:13PM 58.3000 -67.3167 235° Southwest 430 495 38,000  Level Gander Center
01:14PM 58.2333 -67.4667 230° Southwest 430 495 38,000  Level Gander Center
01:15PM 58.1333 -67.6333 221° Southwest 430 495 38,000  Level Gander Center
01:16PM 58.0667 -67.8167 236° Southwest 440 506 38,000  Level Gander Center
01:17PM 57.9833 -67.9833 227° Southwest 440 506 38,000  Level Gander Center
01:18PM 57.8833 -68.1667 224° Southwest 440 506 38,000  Level Gander Center
01:19PM 57.8167 -68.3000 227° Southwest 440 506 38,000  Level Gander Center
01:20PM 57.7333 -68.4833 230° Southwest 440 506 38,000  Level Gander Center
01:21PM 57.6500 -68.6500 227° Southwest 440 506 38,000  Level Gander Center
01:22PM 57.5667 -68.8167 227° Southwest 440 506 38,000  Level Gander Center
01:23PM 57.5000 -68.9833 233° Southwest 440 506 38,000  Level Gander Center
01:24PM 57.4000 -69.1500 222° Southwest 440 506 38,000  Level Gander Center
01:25PM 57.3167 -69.3333 230° Southwest 440 506 38,000  Level Gander Center
01:26PM 57.2333 -69.4667 221° Southwest 440 506 38,000  Level Gander Center
01:27PM 57.1500 -69.6333 227° Southwest 440 506 38,000  Level Gander Center
01:28PM 57.0500 -69.8333 227° Southwest 440 506 38,000  Level Gander Center
01:29PM 56.9833 -69.9667 227° Southwest 440 506 38,000  Level Gander Center
01:30PM 56.9000 -70.1333 228° Southwest 440 506 38,000  Level Gander Center
01:31PM 56.8000 -70.2833 219° Southwest 440 506 38,000  Level Gander Center
01:32PM 56.7333 -70.4500 234° Southwest 440 506 38,000  Level Gander Center
01:33PM 56.6333 -70.6167 223° Southwest 440 506 38,000  Level Gander Center
01:34PM 56.5500 -70.7833 228° Southwest 440 506 38,000  Level Gander Center
01:35PM 56.4667 -70.9500 228° Southwest 440 506 38,000  Level Gander Center
01:36PM 56.3833 -71.0667 218° Southwest 430 495 38,000  Level Gander Center
01:37PM 56.2833 -71.2333 223° Southwest 440 506 38,000  Level Gander Center
01:38PM 56.2000 -71.3833 225° Southwest 440 506 38,000  Level Gander Center
01:39PM 56.1167 -71.5500 228° Southwest 450 518 38,000  Level Gander Center
01:40PM 56.0333 -71.7000 225° Southwest 450 518 38,000  Level Gander Center
01:41PM 55.9500 -71.8667 228° Southwest 450 518 38,000  Level Gander Center
01:42PM 55.8500 -72.0167 220° Southwest 450 518 38,000  Level Gander Center
01:43PM 55.7667 -72.1833 228° Southwest 450 518 38,000  Level Gander Center
01:44PM 55.6667 -72.3333 220° Southwest 450 518 38,000  Level Gander Center
01:45PM 55.5833 -72.4833 226° Southwest 450 518 38,000  Level Gander Center
01:46PM 55.4833 -72.6333 220° Southwest 450 518 38,000  Level Gander Center
01:47PM 55.4000 -72.8000 229° Southwest 450 518 38,000  Level Gander Center
01:48PM 55.3167 -72.9333 222° Southwest 450 518 38,000  Level Gander Center
01:49PM 55.2333 -73.1000 229° Southwest 460 529 38,000  Level Gander Center
01:50PM 55.1333 -73.2500 221° Southwest 450 518 38,000  Level Gander Center
01:51PM 55.0333 -73.3833 217° Southwest 450 518 38,000  Level Gander Center
01:52PM 54.9500 -73.5500 229° Southwest 460 529 38,000  Level Gander Center
01:53PM 54.8500 -73.6833 218° Southwest 460 529 38,000  Level Gander Center
01:54PM 54.7667 -73.8333 226° Southwest 460 529 38,000  Level Gander Center
01:55PM 54.6667 -73.9833 221° Southwest 450 518 38,000  Level Gander Center
01:56PM 54.5833 -74.1333 226° Southwest 450 518 38,000  Level Gander Center
01:57PM 54.4833 -74.3000 224° Southwest 450 518 38,000  Level Gander Center
01:58PM 54.3833 -74.4500 221° Southwest 450 518 38,000  Level Gander Center
01:59PM 54.3000 -74.6000 226° Southwest 450 518 38,000  Level Gander Center
02:00PM 54.2000 -74.7167 214° Southwest 450 518 38,000  Level Gander Center
02:01PM 54.1167 -74.8500 223° Southwest 450 518 38,000  Level Gander Center
02:02PM 54.0167 -75.0000 221° Southwest 450 518 38,000  Level Gander Center
02:03PM 53.9333 -75.1333 223° Southwest 450 518 38,000  Level Gander Center
02:04PM 53.8333 -75.2833 222° Southwest 450 518 38,000  Level Gander Center
02:05PM 53.7500 -75.4167 223° Southwest 450 518 38,000  Level Gander Center
02:06PM 53.6500 -75.5667 222° Southwest 460 529 38,000  Level Gander Center
02:07PM 53.5667 -75.7000 224° Southwest 450 518 38,000  Level Gander Center
02:08PM 53.4667 -75.8333 218° Southwest 460 529 38,000  Level Gander Center
02:09PM 53.3667 -75.9833 222° Southwest 460 529 38,000  Level Gander Center
02:10PM 53.2500 -76.1333 218° Southwest 460 529 38,000  Level Gander Center
02:11PM 53.1667 -76.2833 227° Southwest 460 529 38,000  Level Gander Center
02:12PM 53.0667 -76.4167 219° Southwest 460 529 38,000  Level Gander Center
02:13PM 52.9833 -76.5500 224° Southwest 460 529 38,000  Level Gander Center
02:14PM 52.8833 -76.6833 219° Southwest 460 529 38,000  Level Gander Center
02:15PM 52.7667 -76.8167 215° Southwest 460 529 38,000  Level Gander Center
02:16PM 52.6833 -76.9500 224° Southwest 460 529 38,000  Level Gander Center
02:17PM 52.5667 -77.1000 218° Southwest 450 518 38,000  Level Montreal Center
02:18PM 52.4667 -77.2333 219° Southwest 460 529 38,000  Level Montreal Center
02:19PM 52.3500 -77.3667 215° Southwest 460 529 38,000  Level Montreal Center
02:20PM 52.2500 -77.5000 219° Southwest 460 529 38,000  Level Montreal Center
02:21PM 52.1500 -77.6333 219° Southwest 460 529 38,000  Level Montreal Center
02:22PM 52.0667 -77.7667 225° Southwest 460 529 38,000  Level Montreal Center
02:23PM 51.9667 -77.9000 219° Southwest 460 529 38,000  Level Montreal Center
02:24PM 51.8500 -78.0333 215° Southwest 460 529 38,000  Level Montreal Center
02:25PM 51.7667 -78.1667 225° Southwest 460 529 38,000  Level Montreal Center
02:26PM 51.6667 -78.3000 220° Southwest 460 529 38,000  Level Montreal Center
02:27PM 51.5667 -78.4333 220° Southwest 460 529 38,000  Level Montreal Center
02:28PM 51.4667 -78.5667 220° Southwest 470 541 38,000  Level Montreal Center
02:29PM 51.3500 -78.6833 212° Southwest 470 541 38,000  Level Montreal Center
02:30PM 51.2667 -78.8500 231° Southwest 460 529 38,000  Level Montreal Center
02:31PM 51.1667 -78.9667 216° Southwest 460 529 38,000  Level Montreal Center
02:32PM 51.0667 -79.1000 220° Southwest 460 529 38,000  Level Montreal Center
02:33PM 50.9500 -79.2167 212° Southwest 470 541 38,000  Level Montreal Center
02:34PM 50.8500 -79.3500 220° Southwest 460 529 38,000  Level Montreal Center
02:35PM 50.7500 -79.4833 220° Southwest 460 529 38,000  Level Montreal Center
02:36PM 50.6333 -79.6000 212° Southwest 460 529 38,000  Level Montreal Center
02:37PM 50.5500 -79.7333 225° Southwest 470 541 38,000  Level Montreal Center
02:38PM 50.4500 -79.8500 217° Southwest 460 529 38,000  Level Montreal Center
02:39PM 50.3500 -79.9667 217° Southwest 470 541 38,000  Level Montreal Center
02:40PM 50.2333 -80.1000 216° Southwest 470 541 38,000  Level Montreal Center
02:41PM 50.1333 -80.2500 224° Southwest 470 541 38,000  Level Montreal Center
02:42PM 50.0333 -80.3667 217° Southwest 470 541 38,000  Level Montreal Center
02:43PM 49.9167 -80.4833 213° Southwest 470 541 38,000  Level Montreal Center
02:44PM 49.8333 -80.6167 226° Southwest 470 541 38,000  Level Montreal Center
02:45PM 49.7000 -80.7333 210° Southwest 470 541 38,000  Level Montreal Center
02:46PM 49.6167 -80.8500 222° Southwest 470 541 38,000  Level Montreal Center
02:46PM 49.5333 -80.9167 207° Southwest 470 541 38,000  Level Toronto Center
02:47PM 49.4333 -81.0167 213° Southwest 470 541 38,000  Level Toronto Center
02:48PM 49.3333 -81.1333 217° Southwest 470 541 38,000  Level Toronto Center
02:49PM 49.2333 -81.2667 221° Southwest 480 552 38,000  Level Toronto Center
02:50PM 49.1167 -81.3833 213° Southwest 480 552 38,000  Level Toronto Center
02:51PM 49.0167 -81.5167 221° Southwest 480 552 38,000  Level Toronto Center
02:52PM 48.9167 -81.6333 217° Southwest 470 541 38,000  Level Toronto Center
02:53PM 48.8167 -81.7500 218° Southwest 470 541 38,000  Level Toronto Center
02:54PM 48.7167 -81.8500 213° Southwest 470 541 38,000  Level Toronto Center
02:55PM 48.6000 -81.9667 213° Southwest 470 541 38,000  Level Toronto Center
02:56PM 48.5000 -82.1000 221° Southwest 470 541 38,000  Level Toronto Center
02:57PM 48.3833 -82.2167 214° Southwest 470 541 38,000  Level Toronto Center
02:58PM 48.2833 -82.3333 218° Southwest 460 529 38,000  Level Toronto Center
02:59PM 48.1833 -82.4500 218° Southwest 470 541 38,000  Level Toronto Center
03:00PM 48.0833 -82.5500 214° Southwest 470 541 38,000  Level Toronto Center
03:01PM 47.9833 -82.6667 218° Southwest 470 541 38,000  Level Toronto Center
03:02PM 47.8667 -82.7833 214° Southwest 470 541 38,000  Level Toronto Center
03:08PM 47.2710 -83.4370 214° Southwest 477 549 38,000  Level FlightAware
03:09PM 47.2100 -83.5000 215° Southwest 479 551 38,000  Level FlightAware
03:09PM 47.1530 -83.5590 215° Southwest 479 551 38,000  Level FlightAware
03:10PM 47.0780 -83.6380 216° Southwest 479 551 38,000  Level FlightAware
03:10PM 47.0200 -83.6970 215° Southwest 480 552 38,000  Level FlightAware
03:11PM 46.9560 -83.7630 215° Southwest 481 554 38,000  Level FlightAware
03:11PM 46.9030 -83.8170 215° Southwest 482 555 38,000  Level FlightAware
03:12PM 46.8400 -83.8820 215° Southwest 483 556 38,000  Level FlightAware
03:13PM 46.7620 -83.9620 215° Southwest 484 557 38,000  Level FlightAware
03:13PM 46.6970 -84.0270 214° Southwest 486 559 38,000  Level FlightAware
03:14PM 46.6320 -84.0940 215° Southwest 487 560 38,000  Level FlightAware
03:14PM 46.5720 -84.1540 215° Southwest 489 563 38,000  Level FlightAware
03:15PM 46.5070 -84.2190 215° Southwest 489 563 38,000  Level FlightAware
03:16PM 46.4370 -84.2880 214° Southwest 493 567 38,000  Level FlightAware
03:16PM 46.3770 -84.3260 204° Southwest 506 582 38,000  Level FlightAware
03:17PM 46.3050 -84.3520 194° South 511 588 38,000  Level FlightAware
03:17PM 46.2200 -84.3820 194° South 512 589 38,000  Level FlightAware
03:18PM 46.1380 -84.4090 193° South 512 589 38,000  Level FlightAware
03:19PM 46.0540 -84.4380 193° South 514 592 38,000  Level FlightAware
03:19PM 45.9810 -84.4630 193° South 515 593 38,000  Level FlightAware
03:20PM 45.9010 -84.4910 194° South 515 593 38,000  Level FlightAware
03:20PM 45.8190 -84.5190 193° South 515 593 38,000  Level FlightAware
03:21PM 45.7360 -84.5470 193° South 506 582 38,000  Level FlightAware
03:21PM 45.6560 -84.5740 193° South 500 575 38,000  Level FlightAware
03:22PM 45.5720 -84.6030 194° South 496 571 38,000  Level FlightAware
03:23PM 45.5010 -84.6270 193° South 496 571 38,000  Level FlightAware
03:23PM 45.4170 -84.6550 193° South 496 571 38,000  Level FlightAware
03:24PM 45.3430 -84.6790 193° South 496 571 38,000  Level FlightAware
03:24PM 45.2630 -84.7060 193° South 497 572 38,000  Level FlightAware
03:25PM 45.1830 -84.7330 193° South 497 572 38,000  Level FlightAware
03:26PM 45.1030 -84.7600 193° South 497 572 38,000  Level FlightAware
03:26PM 45.0320 -84.7830 193° South 498 573 38,000  Level FlightAware
03:27PM 44.9550 -84.8080 193° South 499 574 38,000  Level FlightAware
03:27PM 44.8700 -84.8360 193° South 499 574 38,000  Level FlightAware
03:28PM 44.7970 -84.8610 194° South 499 574 38,000  Level FlightAware
03:28PM 44.7180 -84.8860 193° South 499 574 38,000  Level FlightAware
03:29PM 44.6340 -84.9140 193° South 499 574 38,000 -660 Level FlightAware
03:30PM 44.5420 -84.9440 193° South 507 583 37,200 -1,440 Descending FlightAware
03:30PM 44.4620 -84.9700 193° South 516 594 36,200 -1,620 Descending FlightAware
03:31PM 44.3770 -84.9970 193° South 520 598 35,300 -1,320 Descending FlightAware
03:31PM 44.3000 -85.0220 193° South 520 598 34,700 -1,200 Descending FlightAware
03:32PM 44.2120 -85.0500 193° South 520 598 33,900 -1,260 Descending FlightAware
03:33PM 44.1400 -85.0730 193° South 521 600 33,300 -1,200 Descending FlightAware
03:33PM 44.0590 -85.0990 193° South 521 600 32,600 -1,140 Descending FlightAware
03:34PM 43.9710 -85.1270 193° South 515 593 32,000 -480 Descending FlightAware
03:34PM 43.8830 -85.1550 193° South 508 585 32,000  Level FlightAware
03:35PM 43.8060 -85.1800 193° South 509 586 32,000  Level FlightAware
03:36PM 43.7230 -85.2060 193° South 511 588 32,000  Level FlightAware
03:36PM 43.6530 -85.2280 193° South 511 588 32,000  Level FlightAware
03:37PM 43.5740 -85.2530 193° South 510 587 32,000  Level FlightAware
03:37PM 43.4850 -85.2870 195° South 502 578 32,000  Level FlightAware
03:38PM 43.4300 -85.3300 210° Southwest 490 564 32,000  Level FlightAware
03:38PM 43.3970 -85.3720 223° Southwest 480 552 32,000  Level FlightAware
03:39PM 43.3490 -85.4600 233° Southwest 475 547 32,000 -720 Level FlightAware
03:39PM 43.3080 -85.5380 234° Southwest 466 536 31,200 -1,920 Descending FlightAware
03:40PM 43.2630 -85.6230 234° Southwest 459 528 29,900 -2,040 Descending FlightAware
03:40PM 43.2200 -85.7050 234° Southwest 469 540 28,800 -1,860 Descending FlightAware
03:41PM 43.1790 -85.7830 234° Southwest 466 536 27,800 -1,920 Descending FlightAware
03:42PM 43.1350 -85.8640 233° Southwest 462 532 26,700 -1,920 Descending FlightAware
03:42PM 43.0850 -85.9570 234° Southwest 453 521 25,500 -1,920 Descending FlightAware
03:43PM 43.0480 -86.0270 234° Southwest 450 518 24,500 -1,320 Descending FlightAware
03:43PM 43.0000 -86.1160 234° Southwest 435 501 24,000 -420 Descending FlightAware
03:44PM 42.9600 -86.1900 234° Southwest 441 507 24,000  Level FlightAware
03:44PM 42.9180 -86.2690 234° Southwest 444 511 24,000 -960 Level FlightAware
03:45PM 42.8750 -86.3480 233° Southwest 435 501 22,900 -2,220 Descending FlightAware
03:46PM 42.8310 -86.4280 233° Southwest 427 491 21,400 -2,280 Descending FlightAware
03:46PM 42.7900 -86.5030 233° Southwest 429 494 20,200 -1,800 Descending FlightAware
03:47PM 42.7510 -86.5750 234° Southwest 422 486 19,400 -1,980 Descending FlightAware
03:47PM 42.7100 -86.6500 233° Southwest 416 479 18,000 -2,280 Descending FlightAware
03:48PM 42.6690 -86.7250 233° Southwest 403 464 16,700 -2,340 Descending FlightAware
03:49PM 42.6330 -86.7900 233° Southwest 398 458 15,400 -2,340 Descending FlightAware
03:49PM 42.5940 -86.8600 233° Southwest 389 448 14,100 -2,220 Descending FlightAware
03:50PM 42.5560 -86.9300 234° Southwest 380 437 12,700 -1,920 Descending FlightAware
03:50PM 42.5190 -86.9970 233° Southwest 363 418 11,800 -1,260 Descending FlightAware
03:51PM 42.4880 -87.0530 233° Southwest 336 387 11,300 -720 Descending FlightAware
03:51PM 42.4570 -87.1120 235° Southwest 295 339 11,000 -1,260 Descending FlightAware
03:52PM 42.4380 -87.1690 246° West 282 325 9,800 -2,160 Descending FlightAware
03:52PM 42.4260 -87.1870 228° Southwest 283 326 9,200 -2,220 Descending FlightAware
03:52PM 42.4160 -87.1950 211° Southwest 292 336 9,000 -1,200 Descending FlightAware
03:53PM 42.4010 -87.2010 196° South 293 337 8,800 -360 Descending FlightAware
03:53PM 42.3750 -87.2110 196° South 290 334 8,800 -300 Level FlightAware
03:53PM 42.3480 -87.2210 195° South 288 331 8,600 -1,020 Descending FlightAware
03:54PM 42.3180 -87.2320 195° South 285 328 8,100 -1,380 Descending FlightAware
03:54PM 42.2900 -87.2430 196° South 283 326 7,600 -1,260 Descending FlightAware
03:54PM 42.2640 -87.2530 196° South 278 320 7,200 -1,200 Descending FlightAware
03:55PM 42.2460 -87.2610 198° South 276 318 6,900 -600 Descending FlightAware
03:55PM 42.2130 -87.2800 203° Southwest 274 315 6,800 -180 Descending FlightAware
03:55PM 42.1910 -87.2950 207° Southwest 274 315 6,800  Level FlightAware
03:56PM 42.1680 -87.3100 206° Southwest 275 316 6,800 -480 Level FlightAware
03:56PM 42.1450 -87.3250 206° Southwest 271 312 6,500 -1,140 Descending FlightAware
03:57PM 42.1190 -87.3420 206° Southwest 269 310 6,000 -960 Descending FlightAware
03:57PM 42.0950 -87.3570 205° Southwest 266 306 5,800 -300 Descending FlightAware
03:57PM 42.0730 -87.3720 207° Southwest 266 306 5,800  Level FlightAware
03:58PM 42.0510 -87.3860 205° Southwest 267 307 5,800  Level FlightAware
03:58PM 42.0300 -87.4000 206° Southwest 267 307 5,800  Level FlightAware
03:58PM 42.0210 -87.4080 213° Southwest 267 307 5,800  Level FlightAware
03:58PM 42.0150 -87.4190 234° Southwest 267 307 5,800  Level FlightAware
03:58PM 42.0050 -87.4390 236° Southwest 267 307 5,800  Level FlightAware
03:59PM 41.9920 -87.4670 238° Southwest 268 308 5,800  Level FlightAware
03:59PM 41.9880 -87.4790 246° West 262 302 5,800  Level FlightAware
03:59PM 41.9830 -87.5090 257° West 244 281 5,800  Level FlightAware
03:59PM 41.9820 -87.5360 267° West 227 261 5,800 -600 Level FlightAware
04:00PM 41.9830 -87.5690 272° West 225 259 5,400 -1,080 Descending FlightAware
04:00PM 41.9830 -87.5830 270° West 225 259 5,200 -1,080 Descending FlightAware
04:00PM 41.9840 -87.6170 272° West 218 251 4,800 -960 Descending FlightAware
04:01PM 41.9840 -87.6410 270° West 216 249 4,500 -900 Descending FlightAware
04:01PM 41.9840 -87.6710 270° West 206 237 4,200 -1,080 Descending FlightAware
04:01PM 41.9840 -87.6860 270° West 197 227 3,900 -1,500 Descending FlightAware
04:02PM 41.9840 -87.7130 270° West 185 213 3,300 -1,800 Descending FlightAware
04:02PM 41.9840 -87.7380 270° West 179 206 2,600 -1,440 Descending FlightAware
04:03PM 41.9840 -87.7710 270° West 193 222 2,200 -960 Descending FlightAware
04:03PM 41.9840 -87.7950 270° West 177 204 1,800 -1,020 Descending FlightAware
04:03PM 41.9840 -87.8090 270° West 168 193 1,600 -780 Descending FlightAware
04:04PM 41.9840 -87.8350 270° West 145 167 1,300 -780 Descending FlightAware
04:04PM 41.9840 -87.8520 270° West 147 169 1,000 -780 Descending FlightAware
04:04PM 41.9840 -87.8710 270° West 146 168 800 -840 Descending FlightAware
04:05PM 41.9840 -87.8930 270° West 142 163 400 -1,020 Descending FlightAware